createdAt,value
2019-01-03T00:01:40.782Z,1.30
2019-01-03T00:04:09.631Z,1.03
2019-01-03T00:06:38.484Z,0.93
2019-01-03T00:09:07.662Z,1.13
2019-01-03T00:11:37.630Z,1.00
2019-01-03T00:14:06.922Z,1.20
2019-01-03T00:16:35.797Z,1.00
2019-01-03T00:19:04.656Z,1.33
2019-01-03T00:21:33.823Z,1.37
2019-01-03T00:24:02.980Z,1.00
2019-01-03T00:26:32.175Z,1.80
2019-01-03T00:29:01.372Z,1.27
2019-01-03T00:31:30.570Z,0.97
2019-01-03T00:33:59.456Z,1.50
2019-01-03T00:36:28.323Z,0.90
2019-01-03T00:38:57.193Z,1.40
2019-01-03T00:41:26.062Z,0.90
2019-01-03T00:43:55.281Z,0.90
2019-01-03T00:46:24.140Z,1.47
2019-01-03T00:48:53.369Z,1.33
2019-01-03T00:51:22.219Z,1.00
2019-01-03T00:53:51.094Z,1.20
2019-01-03T00:56:19.965Z,1.10
2019-01-03T00:58:48.877Z,1.10
2019-01-03T01:01:17.732Z,1.03
2019-01-03T01:03:46.599Z,1.40
2019-01-03T01:06:15.831Z,1.10
2019-01-03T01:08:45.034Z,1.00
2019-01-03T01:11:14.358Z,1.30
2019-01-03T01:13:43.382Z,1.23
2019-01-03T01:16:12.611Z,1.23
2019-01-03T01:18:42.116Z,0.87
2019-01-03T01:21:11.313Z,0.83
2019-01-03T01:23:44.376Z,1.30
2019-01-03T01:26:15.541Z,1.00
2019-01-03T01:28:44.408Z,0.90
2019-01-03T01:31:13.883Z,1.53
2019-01-03T01:33:43.081Z,1.00
2019-01-03T01:36:12.323Z,1.73
2019-01-03T01:38:41.185Z,1.00
2019-01-03T01:41:10.066Z,1.30
2019-01-03T01:43:39.398Z,1.27
2019-01-03T01:46:08.591Z,1.10
2019-01-03T01:48:37.785Z,1.07
2019-01-03T01:51:06.981Z,1.37
2019-01-03T01:53:35.859Z,1.23
2019-01-03T01:56:04.731Z,1.00
2019-01-03T01:58:33.632Z,0.80
2019-01-03T02:01:02.524Z,1.00
2019-01-03T02:03:31.738Z,1.30
2019-01-03T02:06:00.626Z,1.10
2019-01-03T02:08:29.495Z,0.80
2019-01-03T02:10:58.359Z,1.13
2019-01-03T02:13:27.620Z,1.20
2019-01-03T02:15:56.647Z,0.83
2019-01-03T02:18:25.565Z,1.47
2019-01-03T02:20:54.765Z,1.17
2019-01-03T02:23:23.646Z,0.90
2019-01-03T02:25:52.501Z,0.93
2019-01-03T02:28:21.427Z,1.30
2019-01-03T02:30:50.636Z,1.00
2019-01-03T02:33:19.834Z,1.30
2019-01-03T02:35:48.698Z,1.10
2019-01-03T02:38:17.954Z,0.93
2019-01-03T02:40:47.116Z,0.87
2019-01-03T02:43:16.310Z,1.00
2019-01-03T02:45:45.176Z,1.30
2019-01-03T02:48:14.372Z,1.00
2019-01-03T02:50:43.591Z,0.90
2019-01-03T02:53:12.896Z,1.27
2019-01-03T02:55:41.783Z,1.00
2019-01-03T02:58:10.668Z,1.27
2019-01-03T03:00:40.175Z,0.77
2019-01-03T03:03:09.285Z,0.83
2019-01-03T03:05:38.468Z,0.90
2019-01-03T03:08:07.662Z,1.00
2019-01-03T03:10:36.849Z,1.20
2019-01-03T03:13:06.053Z,0.97
2019-01-03T03:15:35.239Z,1.10
2019-01-03T03:18:04.108Z,0.73
2019-01-03T03:20:35.082Z,0.90
2019-01-03T03:23:03.947Z,0.90
2019-01-03T03:25:33.156Z,0.90
2019-01-03T03:28:02.016Z,0.90
2019-01-03T03:30:31.279Z,1.00
2019-01-03T03:33:00.156Z,1.07
2019-01-03T03:35:29.729Z,0.87
2019-01-03T03:37:58.931Z,0.93
2019-01-03T03:40:28.082Z,0.80
2019-01-03T03:42:56.934Z,0.90
2019-01-03T03:45:25.827Z,1.30
2019-01-03T03:47:55.045Z,1.20
2019-01-03T03:50:24.291Z,1.00
2019-01-03T03:52:53.163Z,1.10
2019-01-03T03:55:22.076Z,1.10
2019-01-03T03:57:50.941Z,1.00
2019-01-03T04:00:19.819Z,1.03
2019-01-03T04:02:48.696Z,1.13
2019-01-03T04:05:17.587Z,0.90
2019-01-03T04:07:46.485Z,1.03
2019-01-03T04:10:15.367Z,1.00
2019-01-03T04:12:44.251Z,0.93
2019-01-03T04:15:13.128Z,0.80
2019-01-03T04:17:41.997Z,1.00
2019-01-03T04:20:10.930Z,0.80
2019-01-03T04:22:40.052Z,1.00
2019-01-03T04:25:09.654Z,1.10
2019-01-03T04:27:38.575Z,1.10
2019-01-03T04:30:07.464Z,0.93
2019-01-03T04:32:36.607Z,1.07
2019-01-03T04:35:05.656Z,1.17
2019-01-03T04:37:34.569Z,0.80
2019-01-03T04:40:03.517Z,1.17
2019-01-03T04:42:32.409Z,1.03
2019-01-03T04:45:01.598Z,1.10
2019-01-03T04:47:30.458Z,1.07
2019-01-03T04:49:59.667Z,1.17
2019-01-03T04:52:28.517Z,1.10
2019-01-03T04:54:57.753Z,1.00
2019-01-03T04:57:26.626Z,0.93
2019-01-03T04:59:55.833Z,1.03
2019-01-03T05:02:24.701Z,1.37
2019-01-03T05:04:53.939Z,1.10
2019-01-03T05:07:23.115Z,0.83
2019-01-03T05:09:52.025Z,0.90
2019-01-03T05:12:21.398Z,1.10
2019-01-03T05:14:50.774Z,0.90
2019-01-03T05:17:19.636Z,0.90
2019-01-03T05:19:48.514Z,1.60
2019-01-03T05:22:17.672Z,1.03
2019-01-03T05:24:46.546Z,0.60
2019-01-03T05:27:15.405Z,0.67
2019-01-03T05:29:44.653Z,1.03
2019-01-03T05:32:13.796Z,1.50
2019-01-03T05:34:42.681Z,1.30
2019-01-03T05:37:11.526Z,1.10
2019-01-03T05:39:40.382Z,1.00
2019-01-03T05:42:09.242Z,0.83
2019-01-03T05:44:38.134Z,0.80
2019-01-03T05:47:07.274Z,0.67
2019-01-03T05:49:36.171Z,0.80
2019-01-03T05:52:05.673Z,1.40
2019-01-03T05:54:34.868Z,1.10
2019-01-03T05:57:03.759Z,1.10
2019-01-03T05:59:32.655Z,0.70
2019-01-03T06:02:02.149Z,1.03
2019-01-03T06:04:31.016Z,1.00
2019-01-03T06:07:00.938Z,0.83
2019-01-03T06:09:29.787Z,1.10
2019-01-03T06:11:58.686Z,1.60
2019-01-03T06:14:28.435Z,1.33
2019-01-03T06:16:57.320Z,1.03
2019-01-03T06:19:26.718Z,1.40
2019-01-03T06:21:55.588Z,1.33
2019-01-03T06:24:24.815Z,1.50
2019-01-03T06:26:54.202Z,0.70
2019-01-03T06:29:23.070Z,1.03
2019-01-03T06:31:51.980Z,1.07
2019-01-03T06:34:21.486Z,0.90
2019-01-03T06:36:50.548Z,0.90
2019-01-03T06:39:19.774Z,1.00
2019-01-03T06:41:49.376Z,0.90
2019-01-03T06:44:18.249Z,22.90
2019-01-03T06:46:47.466Z,1.50
2019-01-03T06:49:16.335Z,1.50
2019-01-03T06:51:45.484Z,1.20
2019-01-03T06:54:14.372Z,0.97
2019-01-03T06:56:43.276Z,1.03
2019-01-03T06:59:12.224Z,1.23
2019-01-03T07:01:41.415Z,1.07
2019-01-03T07:04:10.614Z,1.60
2019-01-03T07:06:39.471Z,1.00
2019-01-03T07:09:08.321Z,1.00
2019-01-03T07:11:37.683Z,0.80
2019-01-03T07:14:06.546Z,1.07
2019-01-03T07:16:35.441Z,1.10
2019-01-03T07:19:04.297Z,0.90
2019-01-03T07:21:33.172Z,1.03
2019-01-03T07:24:02.038Z,1.23
2019-01-03T07:26:30.910Z,1.13
2019-01-03T07:28:59.778Z,1.57
2019-01-03T07:31:28.695Z,1.43
2019-01-03T07:33:58.194Z,1.30
2019-01-03T07:36:27.391Z,1.37
2019-01-03T07:38:56.584Z,2.07
2019-01-03T07:41:25.557Z,2.20
2019-01-03T07:43:54.778Z,1.60
2019-01-03T07:46:23.689Z,3.07
2019-01-03T07:48:53.055Z,2.73
2019-01-03T07:51:22.115Z,2.47
2019-01-03T07:53:50.963Z,2.00
2019-01-03T07:56:19.844Z,2.03
2019-01-03T07:58:49.031Z,2.07
2019-01-03T08:01:17.930Z,1.93
2019-01-03T08:03:47.111Z,1.40
2019-01-03T08:06:17.529Z,1.67
2019-01-03T08:08:46.420Z,2.20
2019-01-03T08:11:15.617Z,2.53
2019-01-03T08:13:44.815Z,2.73
2019-01-03T08:16:13.680Z,2.40
2019-01-03T08:18:42.789Z,2.90
2019-01-03T08:21:11.985Z,3.03
2019-01-03T08:23:41.182Z,2.13
2019-01-03T08:26:10.377Z,1.90
2019-01-03T08:28:39.580Z,2.10
2019-01-03T08:31:08.464Z,2.10
2019-01-03T08:33:37.660Z,3.67
2019-01-03T08:36:06.527Z,3.13
2019-01-03T08:38:35.744Z,2.60
2019-01-03T08:41:04.630Z,3.00
2019-01-03T08:43:33.493Z,2.80
2019-01-03T08:46:02.370Z,2.60
2019-01-03T08:48:31.261Z,2.30
2019-01-03T08:51:00.518Z,1.70
2019-01-03T08:53:29.410Z,2.87
2019-01-03T08:55:58.255Z,2.03
2019-01-03T08:58:27.495Z,3.10
2019-01-03T09:00:56.661Z,1.60
2019-01-03T09:03:25.579Z,1.97
2019-01-03T09:05:54.751Z,1.80
2019-01-03T09:08:23.645Z,1.67
2019-01-03T09:10:52.484Z,1.87
2019-01-03T09:13:21.352Z,1.80
2019-01-03T09:15:50.508Z,1.90
2019-01-03T09:18:19.706Z,2.10
2019-01-03T09:20:48.565Z,2.03
2019-01-03T09:23:17.434Z,2.10
2019-01-03T09:25:46.673Z,2.00
2019-01-03T09:28:15.544Z,1.90
2019-01-03T09:30:44.677Z,1.80
2019-01-03T09:33:13.952Z,2.83
2019-01-03T09:35:42.826Z,2.30
2019-01-03T09:38:12.042Z,2.50
2019-01-03T09:40:40.906Z,1.83
2019-01-03T09:43:10.122Z,2.30
2019-01-03T09:45:44.213Z,2.07
2019-01-03T09:48:08.205Z,2.40
2019-01-03T09:50:37.077Z,1.63
2019-01-03T09:53:05.967Z,2.27
2019-01-03T09:55:34.828Z,2.07
2019-01-03T09:58:03.726Z,2.63
2019-01-03T10:00:32.571Z,2.47
2019-01-03T10:03:01.707Z,2.00
2019-01-03T10:05:30.555Z,2.53
2019-01-03T10:07:59.431Z,2.20
2019-01-03T10:10:28.619Z,2.60
2019-01-03T10:12:57.525Z,2.83
2019-01-03T10:15:26.697Z,2.53
2019-01-03T10:17:55.577Z,3.33
2019-01-03T10:20:24.437Z,2.30
2019-01-03T10:22:53.301Z,2.33
2019-01-03T10:25:41.795Z,2.20
2019-01-03T10:28:10.695Z,2.10
2019-01-03T10:30:39.657Z,2.57
2019-01-03T10:33:08.563Z,2.27
2019-01-03T10:35:37.784Z,2.57
2019-01-03T10:38:06.698Z,2.50
2019-01-03T10:40:35.571Z,2.60
2019-01-03T10:43:04.443Z,2.67
2019-01-03T10:45:33.635Z,3.37
2019-01-03T10:48:02.599Z,4.40
2019-01-03T10:50:31.441Z,2.50
2019-01-03T10:53:00.334Z,2.73
2019-01-03T10:55:29.261Z,2.87
2019-01-03T10:57:58.138Z,3.07
2019-01-03T11:00:27.000Z,3.30
2019-01-03T11:03:15.823Z,3.50
2019-01-03T11:05:45.024Z,3.00
2019-01-03T11:08:13.901Z,3.53
2019-01-03T11:10:43.138Z,3.00
2019-01-03T11:13:11.998Z,3.10
2019-01-03T11:15:40.866Z,3.30
2019-01-03T11:18:09.755Z,3.83
2019-01-03T11:20:38.700Z,3.30
2019-01-03T11:23:07.815Z,3.40
2019-01-03T11:25:36.653Z,4.07
2019-01-03T11:28:05.549Z,3.17
2019-01-03T11:30:34.422Z,3.73
2019-01-03T11:33:03.306Z,3.30
2019-01-03T11:35:32.505Z,3.43
2019-01-03T11:38:01.420Z,3.90
2019-01-03T11:40:30.242Z,3.60
2019-01-03T11:42:59.678Z,4.00
2019-01-03T11:45:28.554Z,4.80
2019-01-03T11:47:57.766Z,4.57
2019-01-03T11:50:26.618Z,3.97
2019-01-03T11:52:55.528Z,4.50
2019-01-03T11:55:24.396Z,4.67
2019-01-03T11:57:53.635Z,4.67
2019-01-03T12:00:23.529Z,5.50
2019-01-03T12:02:52.733Z,5.40
2019-01-03T12:05:21.597Z,5.40
2019-01-03T12:07:50.813Z,6.03
2019-01-03T12:10:19.729Z,6.20
2019-01-03T12:12:49.004Z,6.37
2019-01-03T12:15:17.884Z,5.87
2019-01-03T12:17:46.757Z,6.07
2019-01-03T12:20:15.868Z,6.27
2019-01-03T12:22:44.717Z,6.33
2019-01-03T12:25:13.961Z,6.50
2019-01-03T12:27:43.156Z,6.73
2019-01-03T12:30:12.019Z,6.97
2019-01-03T12:32:41.244Z,6.53
2019-01-03T12:35:10.642Z,6.20
2019-01-03T12:37:39.496Z,6.07
2019-01-03T12:40:08.723Z,6.57
2019-01-03T12:42:37.924Z,6.30
2019-01-03T12:45:07.101Z,6.03
2019-01-03T12:47:35.961Z,6.30
2019-01-03T12:50:05.832Z,6.63
2019-01-03T12:52:34.717Z,6.83
2019-01-03T12:55:03.590Z,6.47
2019-01-03T12:57:32.753Z,6.83
2019-01-03T13:00:01.986Z,7.73
2019-01-03T13:02:30.851Z,6.67
2019-01-03T13:04:59.780Z,7.67
2019-01-03T13:07:29.362Z,7.53
2019-01-03T13:09:58.230Z,7.97
2019-01-03T13:12:27.455Z,8.97
2019-01-03T13:14:56.645Z,7.20
2019-01-03T13:17:25.850Z,7.90
2019-01-03T13:19:55.510Z,7.97
2019-01-03T13:22:24.649Z,7.80
2019-01-03T13:24:53.523Z,7.10
2019-01-03T13:27:22.404Z,7.37
2019-01-03T13:29:55.620Z,6.33
2019-01-03T13:32:26.853Z,5.53
2019-01-03T13:34:55.737Z,7.30
2019-01-03T13:37:24.619Z,6.17
2019-01-03T13:39:53.510Z,6.33
2019-01-03T13:42:22.931Z,6.07
2019-01-03T13:44:51.806Z,6.23
2019-01-03T13:47:20.662Z,5.70
2019-01-03T13:49:49.849Z,6.33
2019-01-03T13:52:18.728Z,5.50
2019-01-03T13:54:47.574Z,5.97
2019-01-03T13:57:16.728Z,5.50
2019-01-03T13:59:45.695Z,5.87
2019-01-03T14:02:14.857Z,5.73
2019-01-03T14:04:44.352Z,5.63
2019-01-03T14:07:13.241Z,6.00
2019-01-03T14:09:42.522Z,6.73
2019-01-03T14:12:11.746Z,6.77
2019-01-03T14:14:40.654Z,7.73
2019-01-03T14:17:09.496Z,7.27
2019-01-03T14:19:38.719Z,6.50
2019-01-03T14:22:07.589Z,5.33
2019-01-03T14:24:36.478Z,5.93
2019-01-03T14:27:05.313Z,4.57
2019-01-03T14:29:34.782Z,5.53
2019-01-03T14:32:03.906Z,5.17
2019-01-03T14:34:32.791Z,5.17
2019-01-03T14:37:01.957Z,4.80
2019-01-03T14:39:31.035Z,4.57
2019-01-03T14:41:59.876Z,4.17
2019-01-03T14:44:28.735Z,4.30
2019-01-03T14:46:57.874Z,4.23
2019-01-03T14:49:27.124Z,4.20
2019-01-03T14:51:56.318Z,4.23
2019-01-03T14:54:25.263Z,3.80
2019-01-03T14:56:54.223Z,4.33
2019-01-03T14:59:23.491Z,3.67
2019-01-03T15:01:52.341Z,9.15
2019-01-03T15:04:21.231Z,5.50
2019-01-03T15:06:50.374Z,4.33
2019-01-03T15:13:17.606Z,4.83
2019-01-03T15:15:46.842Z,3.90
2019-01-03T15:19:58.649Z,3.67
2019-01-03T15:22:27.475Z,4.47
2019-01-03T15:24:56.744Z,3.83
2019-01-03T15:27:25.650Z,3.40
2019-01-03T15:29:54.805Z,3.93
2019-01-03T15:32:24.014Z,3.93
2019-01-03T15:34:53.194Z,3.40
2019-01-03T15:37:22.016Z,3.80
2019-01-03T15:42:29.788Z,3.40
2019-01-03T15:44:58.611Z,3.17
2019-01-03T15:47:27.470Z,3.77
2019-01-03T15:49:56.489Z,4.50
2019-01-03T15:52:25.481Z,6.27
2019-01-03T15:54:54.786Z,4.27
2019-01-03T15:57:24.254Z,3.93
2019-01-03T15:59:53.235Z,4.30
2019-01-03T16:05:03.340Z,4.13
2019-01-03T16:07:32.507Z,11.67
2019-01-03T16:12:16.923Z,6.30
2019-01-03T16:14:46.077Z,3.07
2019-01-03T16:17:14.907Z,5.73
2019-01-03T16:20:22.866Z,5.97
2019-01-03T16:22:51.733Z,4.10
2019-01-03T16:27:59.919Z,3.67
2019-01-03T16:30:29.167Z,3.70
2019-01-03T16:32:58.365Z,3.40
2019-01-03T16:38:06.685Z,3.43
2019-01-03T16:40:35.782Z,3.47
2019-01-03T16:43:04.976Z,3.33
2019-01-03T16:45:34.176Z,3.37
2019-01-03T16:48:03.042Z,3.00
2019-01-03T16:50:31.938Z,3.00
2019-01-03T16:53:01.248Z,3.70
2019-01-03T16:55:30.115Z,3.77
2019-01-03T16:57:59.331Z,4.40
2019-01-03T17:00:28.527Z,3.67
2019-01-03T17:02:59.675Z,3.53
2019-01-03T17:05:30.812Z,4.17
2019-01-03T17:08:01.592Z,3.50
2019-01-03T17:10:32.379Z,4.27
2019-01-03T17:13:03.173Z,3.50
2019-01-03T17:21:18.372Z,3.13
2019-01-03T17:23:49.490Z,3.83
2019-01-03T17:29:01.283Z,3.10
2019-01-03T17:31:32.459Z,3.83
2019-01-03T17:36:42.044Z,4.33
2019-01-03T17:41:51.869Z,4.73
2019-01-03T17:47:01.952Z,3.83
2019-01-03T17:52:11.749Z,3.67
2019-01-03T18:03:01.131Z,4.03
2019-01-03T18:08:13.441Z,3.87
2019-01-03T18:13:23.389Z,4.40
2019-01-03T18:18:36.601Z,4.07
2019-01-03T18:23:40.616Z,5.93
2019-01-03T18:26:11.389Z,5.00
2019-01-03T18:28:42.181Z,5.10
2019-01-03T18:33:54.328Z,4.77
2019-01-03T18:36:25.128Z,5.30
2019-01-03T18:38:56.203Z,5.77
2019-01-03T18:44:08.476Z,4.73
2019-01-03T18:46:39.289Z,5.80
2019-01-03T18:51:51.385Z,5.50
2019-01-03T18:54:22.512Z,5.13
2019-01-03T18:56:53.676Z,6.30
2019-01-03T18:59:24.795Z,7.03
2019-01-03T19:01:55.604Z,6.57
2019-01-03T19:04:26.764Z,6.73
2019-01-03T19:06:57.907Z,7.63
2019-01-03T19:09:28.730Z,9.98
2019-01-03T19:11:59.556Z,7.17
2019-01-03T19:17:09.159Z,6.00
2019-01-03T19:22:18.703Z,7.40
2019-01-03T19:24:49.746Z,7.30
2019-01-03T19:27:20.558Z,7.50
2019-01-03T19:32:30.384Z,7.30
2019-01-03T19:35:01.454Z,8.20
2019-01-03T19:37:32.268Z,7.40
2019-01-03T19:40:03.434Z,7.53
2019-01-03T19:42:34.222Z,7.63
2019-01-03T19:45:05.301Z,7.63
2019-01-03T19:47:36.454Z,7.23
2019-01-03T19:50:08.014Z,7.47
2019-01-03T19:52:38.813Z,6.87
2019-01-03T19:55:10.080Z,7.63
2019-01-03T19:57:40.879Z,6.70
2019-01-03T20:00:12.958Z,6.43
2019-01-03T20:02:43.782Z,7.93
2019-01-03T20:05:14.606Z,7.57
2019-01-03T20:07:45.990Z,7.47
2019-01-03T20:10:16.774Z,7.50
2019-01-03T20:12:47.577Z,8.57
2019-01-03T20:15:18.371Z,7.30
2019-01-03T20:17:49.188Z,8.30
2019-01-03T20:20:20.674Z,7.33
2019-01-03T20:22:51.817Z,8.17
2019-01-03T20:25:22.623Z,7.23
2019-01-03T20:27:53.443Z,7.10
2019-01-03T20:30:24.250Z,7.70
2019-01-03T20:32:55.365Z,9.23
2019-01-03T20:35:26.238Z,8.00
2019-01-03T20:37:57.044Z,8.17
2019-01-03T20:40:28.462Z,7.33
2019-01-03T20:42:59.283Z,8.17
2019-01-03T20:45:30.447Z,7.30
2019-01-03T20:48:01.538Z,9.40
2019-01-03T20:50:32.342Z,7.67
2019-01-03T20:53:03.135Z,8.70
2019-01-03T20:55:33.920Z,9.20
2019-01-03T20:58:04.789Z,8.60
2019-01-03T21:00:35.859Z,8.27
2019-01-03T21:03:06.966Z,8.07
2019-01-03T21:05:37.767Z,8.30
2019-01-03T21:08:08.878Z,9.03
2019-01-03T21:10:39.675Z,8.53
2019-01-03T21:13:10.469Z,8.97
2019-01-03T21:15:41.264Z,9.37
2019-01-03T21:18:16.796Z,9.17
2019-01-03T21:20:47.603Z,8.47
2019-01-03T21:23:18.657Z,9.03
2019-01-03T21:25:50.039Z,9.10
2019-01-03T21:28:20.860Z,8.87
2019-01-03T21:30:51.649Z,9.77
2019-01-03T21:33:22.481Z,8.87
2019-01-03T21:35:53.582Z,9.07
2019-01-03T21:38:24.708Z,9.60
2019-01-03T21:40:55.511Z,10.23
2019-01-03T21:43:26.394Z,9.27
2019-01-03T21:45:57.530Z,9.27
2019-01-03T21:48:28.408Z,9.20
2019-01-03T21:50:59.201Z,9.33
2019-01-03T21:53:30.070Z,9.30
2019-01-03T21:56:00.873Z,8.93
2019-01-03T21:58:31.965Z,9.10
2019-01-03T22:01:02.950Z,9.07
2019-01-03T22:03:34.087Z,9.20
2019-01-03T22:06:05.226Z,10.20
2019-01-03T22:08:36.069Z,9.00
2019-01-03T22:11:06.864Z,8.33
2019-01-03T22:13:38.040Z,9.00
2019-01-03T22:16:08.852Z,8.50
2019-01-03T22:21:20.581Z,8.13
2019-01-03T22:23:51.920Z,8.17
2019-01-03T22:26:22.705Z,8.47
2019-01-03T22:28:53.847Z,7.90
2019-01-03T22:31:24.658Z,8.00
2019-01-03T22:33:55.480Z,8.23
2019-01-03T22:36:26.801Z,6.37
2019-01-03T22:38:57.069Z,7.03
2019-01-03T22:41:27.926Z,7.03
2019-01-03T22:43:59.110Z,7.13
2019-01-03T22:46:29.927Z,8.67
2019-01-03T22:49:01.142Z,7.67
2019-01-03T22:54:13.448Z,7.23
2019-01-03T22:56:44.576Z,7.37
2019-01-03T23:01:54.812Z,6.83
2019-01-03T23:04:25.612Z,7.07
2019-01-03T23:06:56.703Z,7.57
2019-01-03T23:12:08.497Z,6.27
2019-01-03T23:14:39.624Z,7.57
2019-01-03T23:17:10.774Z,7.33
2019-01-03T23:19:41.586Z,5.80
2019-01-03T23:22:12.751Z,6.57
2019-01-03T23:24:43.896Z,7.10
2019-01-03T23:27:15.039Z,6.07
2019-01-03T23:29:45.847Z,6.60
2019-01-03T23:32:16.654Z,6.50
2019-01-03T23:34:47.472Z,6.60
2019-01-03T23:37:18.270Z,6.97
2019-01-03T23:42:30.484Z,5.80
2019-01-03T23:45:20.080Z,6.87
2019-01-03T23:47:51.721Z,6.23
2019-01-03T23:50:23.776Z,6.27
2019-01-03T23:52:55.048Z,6.13
2019-01-03T23:55:25.744Z,6.20
2019-01-03T23:57:56.589Z,5.87
